sensor_id;sensor_type;location;lat;lon;timestamp;P1;durP1;ratioP1;P2;durP2;ratioP2
59530;SDS011;45349;48.692;8.186;2022-07-09T00:00:34;3.10;;;2.17;;
59530;SDS011;45349;48.692;8.186;2022-07-09T00:03:00;5.73;;;2.20;;
59530;SDS011;45349;48.692;8.186;2022-07-09T00:05:27;2.97;;;2.37;;
59530;SDS011;45349;48.692;8.186;2022-07-09T00:07:54;2.97;;;2.20;;
59530;SDS011;45349;48.692;8.186;2022-07-09T00:10:22;6.33;;;2.17;;
59530;SDS011;45349;48.692;8.186;2022-07-09T00:12:48;5.67;;;2.40;;
59530;SDS011;45349;48.692;8.186;2022-07-09T00:15:15;4.73;;;2.30;;
59530;SDS011;45349;48.692;8.186;2022-07-09T00:17:42;4.00;;;2.53;;
59530;SDS011;45349;48.692;8.186;2022-07-09T00:20:09;6.27;;;2.13;;
59530;SDS011;45349;48.692;8.186;2022-07-09T00:22:36;3.03;;;2.13;;
59530;SDS011;45349;48.692;8.186;2022-07-09T00:25:23;5.07;;;2.00;;
59530;SDS011;45349;48.692;8.186;2022-07-09T00:27:50;4.90;;;2.37;;
59530;SDS011;45349;48.692;8.186;2022-07-09T00:30:17;6.27;;;2.13;;
59530;SDS011;45349;48.692;8.186;2022-07-09T00:32:44;6.37;;;2.07;;
59530;SDS011;45349;48.692;8.186;2022-07-09T00:35:10;6.33;;;2.33;;
59530;SDS011;45349;48.692;8.186;2022-07-09T00:37:55;5.53;;;2.23;;
59530;SDS011;45349;48.692;8.186;2022-07-09T00:40:24;6.30;;;2.60;;
59530;SDS011;45349;48.692;8.186;2022-07-09T00:42:50;5.33;;;2.20;;
59530;SDS011;45349;48.692;8.186;2022-07-09T00:45:17;2.83;;;2.20;;
59530;SDS011;45349;48.692;8.186;2022-07-09T00:47:44;4.90;;;2.20;;
59530;SDS011;45349;48.692;8.186;2022-07-09T00:50:11;7.27;;;2.40;;
59530;SDS011;45349;48.692;8.186;2022-07-09T00:52:38;5.13;;;2.03;;
59530;SDS011;45349;48.692;8.186;2022-07-09T00:55:06;5.63;;;2.20;;
59530;SDS011;45349;48.692;8.186;2022-07-09T00:57:37;5.00;;;2.40;;
59530;SDS011;45349;48.692;8.186;2022-07-09T01:00:05;5.20;;;2.50;;
59530;SDS011;45349;48.692;8.186;2022-07-09T01:02:33;3.17;;;2.30;;
59530;SDS011;45349;48.692;8.186;2022-07-09T01:05:00;2.97;;;2.30;;
59530;SDS011;45349;48.692;8.186;2022-07-09T01:07:27;7.50;;;2.40;;
59530;SDS011;45349;48.692;8.186;2022-07-09T01:09:54;3.73;;;2.30;;
59530;SDS011;45349;48.692;8.186;2022-07-09T01:12:20;13.13;;;2.10;;
59530;SDS011;45349;48.692;8.186;2022-07-09T01:14:49;4.80;;;2.60;;
59530;SDS011;45349;48.692;8.186;2022-07-09T01:17:16;4.57;;;2.43;;
59530;SDS011;45349;48.692;8.186;2022-07-09T01:19:43;5.33;;;2.30;;
59530;SDS011;45349;48.692;8.186;2022-07-09T01:22:11;5.77;;;2.33;;
59530;SDS011;45349;48.692;8.186;2022-07-09T01:24:38;4.77;;;2.23;;
59530;SDS011;45349;48.692;8.186;2022-07-09T01:27:06;6.13;;;2.30;;
59530;SDS011;45349;48.692;8.186;2022-07-09T01:29:33;3.47;;;2.10;;
59530;SDS011;45349;48.692;8.186;2022-07-09T01:31:59;2.73;;;2.10;;
59530;SDS011;45349;48.692;8.186;2022-07-09T01:34:26;5.23;;;2.13;;
59530;SDS011;45349;48.692;8.186;2022-07-09T01:36:53;3.33;;;2.17;;
59530;SDS011;45349;48.692;8.186;2022-07-09T01:39:21;5.27;;;2.30;;
59530;SDS011;45349;48.692;8.186;2022-07-09T01:41:48;5.83;;;2.83;;
59530;SDS011;45349;48.692;8.186;2022-07-09T01:44:15;6.43;;;2.10;;
59530;SDS011;45349;48.692;8.186;2022-07-09T01:46:42;3.57;;;2.13;;
59530;SDS011;45349;48.692;8.186;2022-07-09T01:49:08;3.67;;;2.13;;
59530;SDS011;45349;48.692;8.186;2022-07-09T01:51:35;3.87;;;2.13;;
59530;SDS011;45349;48.692;8.186;2022-07-09T01:54:02;6.03;;;2.60;;
59530;SDS011;45349;48.692;8.186;2022-07-09T01:56:30;7.07;;;2.60;;
59530;SDS011;45349;48.692;8.186;2022-07-09T01:58:58;5.50;;;2.40;;
59530;SDS011;45349;48.692;8.186;2022-07-09T02:01:25;6.03;;;2.33;;
59530;SDS011;45349;48.692;8.186;2022-07-09T02:03:52;5.27;;;2.30;;
59530;SDS011;45349;48.692;8.186;2022-07-09T02:06:18;4.40;;;2.20;;
59530;SDS011;45349;48.692;8.186;2022-07-09T02:08:45;6.43;;;2.30;;
59530;SDS011;45349;48.692;8.186;2022-07-09T02:11:12;4.73;;;2.63;;
59530;SDS011;45349;48.692;8.186;2022-07-09T02:13:40;4.27;;;2.20;;
59530;SDS011;45349;48.692;8.186;2022-07-09T02:16:07;5.10;;;2.57;;
59530;SDS011;45349;48.692;8.186;2022-07-09T02:18:33;11.80;;;2.40;;
59530;SDS011;45349;48.692;8.186;2022-07-09T02:21:00;7.33;;;2.57;;
59530;SDS011;45349;48.692;8.186;2022-07-09T02:23:27;5.23;;;2.10;;
59530;SDS011;45349;48.692;8.186;2022-07-09T02:25:54;10.90;;;2.97;;
59530;SDS011;45349;48.692;8.186;2022-07-09T02:28:21;4.23;;;2.40;;
59530;SDS011;45349;48.692;8.186;2022-07-09T02:30:49;6.20;;;2.20;;
59530;SDS011;45349;48.692;8.186;2022-07-09T02:33:16;3.77;;;2.07;;
59530;SDS011;45349;48.692;8.186;2022-07-09T02:35:43;4.07;;;2.40;;
59530;SDS011;45349;48.692;8.186;2022-07-09T02:38:10;4.57;;;2.40;;
59530;SDS011;45349;48.692;8.186;2022-07-09T02:40:36;4.27;;;2.27;;
59530;SDS011;45349;48.692;8.186;2022-07-09T02:43:03;4.60;;;2.50;;
59530;SDS011;45349;48.692;8.186;2022-07-09T02:45:30;10.17;;;2.70;;
59530;SDS011;45349;48.692;8.186;2022-07-09T02:47:58;5.20;;;2.17;;
59530;SDS011;45349;48.692;8.186;2022-07-09T02:50:25;5.87;;;2.57;;
59530;SDS011;45349;48.692;8.186;2022-07-09T02:53:10;5.30;;;2.50;;
59530;SDS011;45349;48.692;8.186;2022-07-09T02:55:37;3.93;;;2.30;;
59530;SDS011;45349;48.692;8.186;2022-07-09T02:58:04;3.77;;;2.37;;
59530;SDS011;45349;48.692;8.186;2022-07-09T03:00:30;7.87;;;3.00;;
59530;SDS011;45349;48.692;8.186;2022-07-09T03:02:59;6.47;;;2.50;;
59530;SDS011;45349;48.692;8.186;2022-07-09T03:05:26;5.87;;;2.80;;
59530;SDS011;45349;48.692;8.186;2022-07-09T03:07:53;7.50;;;2.83;;
59530;SDS011;45349;48.692;8.186;2022-07-09T03:10:20;3.90;;;2.50;;
59530;SDS011;45349;48.692;8.186;2022-07-09T03:12:47;8.53;;;2.30;;
59530;SDS011;45349;48.692;8.186;2022-07-09T03:15:14;8.37;;;2.73;;
59530;SDS011;45349;48.692;8.186;2022-07-09T03:17:42;6.77;;;2.50;;
59530;SDS011;45349;48.692;8.186;2022-07-09T03:20:11;5.90;;;2.80;;
59530;SDS011;45349;48.692;8.186;2022-07-09T03:22:38;4.63;;;2.60;;
59530;SDS011;45349;48.692;8.186;2022-07-09T03:25:05;7.13;;;2.40;;
59530;SDS011;45349;48.692;8.186;2022-07-09T03:27:34;8.93;;;2.83;;
59530;SDS011;45349;48.692;8.186;2022-07-09T03:30:01;5.50;;;2.60;;
59530;SDS011;45349;48.692;8.186;2022-07-09T03:32:29;4.43;;;2.57;;
59530;SDS011;45349;48.692;8.186;2022-07-09T03:34:55;8.00;;;2.93;;
59530;SDS011;45349;48.692;8.186;2022-07-09T03:37:24;4.07;;;2.80;;
59530;SDS011;45349;48.692;8.186;2022-07-09T03:39:51;4.37;;;2.73;;
59530;SDS011;45349;48.692;8.186;2022-07-09T03:42:18;3.53;;;2.57;;
59530;SDS011;45349;48.692;8.186;2022-07-09T03:44:44;5.23;;;2.67;;
59530;SDS011;45349;48.692;8.186;2022-07-09T03:47:11;6.37;;;2.70;;
59530;SDS011;45349;48.692;8.186;2022-07-09T03:49:38;4.47;;;2.63;;
59530;SDS011;45349;48.692;8.186;2022-07-09T03:52:05;10.37;;;2.87;;
59530;SDS011;45349;48.692;8.186;2022-07-09T03:54:33;4.60;;;2.67;;
59530;SDS011;45349;48.692;8.186;2022-07-09T03:57:00;6.00;;;3.00;;
59530;SDS011;45349;48.692;8.186;2022-07-09T03:59:27;7.67;;;2.80;;
59530;SDS011;45349;48.692;8.186;2022-07-09T04:01:54;8.23;;;2.77;;
59530;SDS011;45349;48.692;8.186;2022-07-09T04:04:21;3.50;;;2.60;;
59530;SDS011;45349;48.692;8.186;2022-07-09T04:06:48;4.37;;;2.63;;
59530;SDS011;45349;48.692;8.186;2022-07-09T04:09:15;10.60;;;2.63;;
59530;SDS011;45349;48.692;8.186;2022-07-09T04:11:43;7.73;;;3.20;;
59530;SDS011;45349;48.692;8.186;2022-07-09T04:14:10;4.87;;;3.20;;
59530;SDS011;45349;48.692;8.186;2022-07-09T04:16:37;6.73;;;2.60;;
59530;SDS011;45349;48.692;8.186;2022-07-09T04:19:04;7.83;;;2.93;;
59530;SDS011;45349;48.692;8.186;2022-07-09T04:21:30;10.67;;;2.80;;
59530;SDS011;45349;48.692;8.186;2022-07-09T04:23:57;4.97;;;2.80;;
59530;SDS011;45349;48.692;8.186;2022-07-09T04:26:24;6.07;;;2.60;;
59530;SDS011;45349;48.692;8.186;2022-07-09T04:28:53;5.43;;;2.80;;
59530;SDS011;45349;48.692;8.186;2022-07-09T04:31:20;4.97;;;2.50;;
59530;SDS011;45349;48.692;8.186;2022-07-09T04:33:46;6.70;;;2.63;;
59530;SDS011;45349;48.692;8.186;2022-07-09T04:36:14;5.87;;;3.20;;
59530;SDS011;45349;48.692;8.186;2022-07-09T04:38:41;4.40;;;2.70;;
59530;SDS011;45349;48.692;8.186;2022-07-09T04:41:07;5.23;;;3.00;;
59530;SDS011;45349;48.692;8.186;2022-07-09T04:43:34;7.50;;;2.93;;
59530;SDS011;45349;48.692;8.186;2022-07-09T04:46:03;8.50;;;3.10;;
59530;SDS011;45349;48.692;8.186;2022-07-09T04:48:30;4.93;;;2.60;;
59530;SDS011;45349;48.692;8.186;2022-07-09T04:50:58;11.80;;;2.97;;
59530;SDS011;45349;48.692;8.186;2022-07-09T04:53:25;15.20;;;3.97;;
59530;SDS011;45349;48.692;8.186;2022-07-09T04:55:53;4.40;;;2.77;;
59530;SDS011;45349;48.692;8.186;2022-07-09T04:58:20;9.47;;;3.23;;
59530;SDS011;45349;48.692;8.186;2022-07-09T05:00:47;6.37;;;2.97;;
59530;SDS011;45349;48.692;8.186;2022-07-09T05:03:16;11.57;;;2.93;;
59530;SDS011;45349;48.692;8.186;2022-07-09T05:05:43;7.77;;;3.27;;
59530;SDS011;45349;48.692;8.186;2022-07-09T05:08:10;6.23;;;2.77;;
59530;SDS011;45349;48.692;8.186;2022-07-09T05:10:37;8.30;;;3.27;;
59530;SDS011;45349;48.692;8.186;2022-07-09T05:13:05;8.77;;;3.23;;
59530;SDS011;45349;48.692;8.186;2022-07-09T05:15:32;6.70;;;2.90;;
59530;SDS011;45349;48.692;8.186;2022-07-09T05:18:00;7.23;;;3.30;;
59530;SDS011;45349;48.692;8.186;2022-07-09T05:20:30;6.57;;;3.20;;
59530;SDS011;45349;48.692;8.186;2022-07-09T05:22:57;6.93;;;2.97;;
59530;SDS011;45349;48.692;8.186;2022-07-09T05:25:24;10.37;;;3.13;;
59530;SDS011;45349;48.692;8.186;2022-07-09T05:27:51;5.23;;;3.10;;
59530;SDS011;45349;48.692;8.186;2022-07-09T05:30:18;3.57;;;2.60;;
59530;SDS011;45349;48.692;8.186;2022-07-09T05:32:46;7.13;;;2.70;;
59530;SDS011;45349;48.692;8.186;2022-07-09T05:35:12;5.53;;;2.60;;
59530;SDS011;45349;48.692;8.186;2022-07-09T05:37:41;3.77;;;2.40;;
59530;SDS011;45349;48.692;8.186;2022-07-09T05:40:09;5.10;;;2.70;;
59530;SDS011;45349;48.692;8.186;2022-07-09T05:42:37;8.87;;;2.90;;
59530;SDS011;45349;48.692;8.186;2022-07-09T05:45:23;4.70;;;2.40;;
59530;SDS011;45349;48.692;8.186;2022-07-09T05:47:50;7.13;;;2.70;;
59530;SDS011;45349;48.692;8.186;2022-07-09T05:50:16;4.43;;;2.37;;
59530;SDS011;45349;48.692;8.186;2022-07-09T05:52:45;9.67;;;2.67;;
59530;SDS011;45349;48.692;8.186;2022-07-09T05:55:13;5.20;;;2.20;;
59530;SDS011;45349;48.692;8.186;2022-07-09T05:57:40;3.30;;;2.20;;
59530;SDS011;45349;48.692;8.186;2022-07-09T06:00:07;9.23;;;2.50;;
59530;SDS011;45349;48.692;8.186;2022-07-09T06:02:35;4.13;;;2.10;;
59530;SDS011;45349;48.692;8.186;2022-07-09T06:05:02;7.63;;;2.47;;
59530;SDS011;45349;48.692;8.186;2022-07-09T06:07:29;3.47;;;2.10;;
59530;SDS011;45349;48.692;8.186;2022-07-09T06:09:57;8.57;;;3.17;;
59530;SDS011;45349;48.692;8.186;2022-07-09T06:12:24;4.33;;;2.30;;
59530;SDS011;45349;48.692;8.186;2022-07-09T06:14:52;6.80;;;2.43;;
59530;SDS011;45349;48.692;8.186;2022-07-09T06:17:18;7.40;;;2.77;;
59530;SDS011;45349;48.692;8.186;2022-07-09T06:19:46;4.43;;;2.60;;
59530;SDS011;45349;48.692;8.186;2022-07-09T06:22:13;9.13;;;2.30;;
59530;SDS011;45349;48.692;8.186;2022-07-09T06:24:41;5.20;;;2.53;;
59530;SDS011;45349;48.692;8.186;2022-07-09T06:27:09;3.90;;;2.77;;
59530;SDS011;45349;48.692;8.186;2022-07-09T06:29:36;4.27;;;2.90;;
59530;SDS011;45349;48.692;8.186;2022-07-09T06:32:04;6.93;;;3.00;;
59530;SDS011;45349;48.692;8.186;2022-07-09T06:34:31;5.93;;;2.80;;
59530;SDS011;45349;48.692;8.186;2022-07-09T06:36:58;4.77;;;2.50;;
59530;SDS011;45349;48.692;8.186;2022-07-09T06:39:25;3.70;;;2.30;;
59530;SDS011;45349;48.692;8.186;2022-07-09T06:42:11;4.03;;;2.57;;
59530;SDS011;45349;48.692;8.186;2022-07-09T06:44:44;5.13;;;2.77;;
59530;SDS011;45349;48.692;8.186;2022-07-09T06:47:10;7.20;;;2.70;;
59530;SDS011;45349;48.692;8.186;2022-07-09T06:49:38;6.50;;;2.90;;
59530;SDS011;45349;48.692;8.186;2022-07-09T06:52:07;7.87;;;2.30;;
59530;SDS011;45349;48.692;8.186;2022-07-09T06:54:34;6.97;;;2.80;;
59530;SDS011;45349;48.692;8.186;2022-07-09T06:57:03;5.03;;;2.47;;
59530;SDS011;45349;48.692;8.186;2022-07-09T06:59:33;4.67;;;2.23;;
59530;SDS011;45349;48.692;8.186;2022-07-09T07:02:00;5.53;;;2.63;;
59530;SDS011;45349;48.692;8.186;2022-07-09T07:04:27;6.10;;;2.20;;
59530;SDS011;45349;48.692;8.186;2022-07-09T07:06:55;5.87;;;2.80;;
59530;SDS011;45349;48.692;8.186;2022-07-09T07:09:21;7.70;;;2.70;;
59530;SDS011;45349;48.692;8.186;2022-07-09T07:11:48;3.27;;;2.40;;
59530;SDS011;45349;48.692;8.186;2022-07-09T07:14:16;5.50;;;2.57;;
59530;SDS011;45349;48.692;8.186;2022-07-09T07:16:45;4.07;;;2.50;;
59530;SDS011;45349;48.692;8.186;2022-07-09T07:19:13;7.17;;;3.07;;
59530;SDS011;45349;48.692;8.186;2022-07-09T07:21:40;5.30;;;2.87;;
59530;SDS011;45349;48.692;8.186;2022-07-09T07:24:07;8.20;;;2.83;;
59530;SDS011;45349;48.692;8.186;2022-07-09T07:26:34;7.23;;;2.70;;
59530;SDS011;45349;48.692;8.186;2022-07-09T07:29:02;4.67;;;3.00;;
59530;SDS011;45349;48.692;8.186;2022-07-09T07:31:49;5.73;;;2.53;;
59530;SDS011;45349;48.692;8.186;2022-07-09T07:34:16;4.90;;;2.60;;
59530;SDS011;45349;48.692;8.186;2022-07-09T07:36:47;3.30;;;2.70;;
59530;SDS011;45349;48.692;8.186;2022-07-09T07:39:16;3.80;;;2.83;;
59530;SDS011;45349;48.692;8.186;2022-07-09T07:41:42;8.00;;;3.00;;
59530;SDS011;45349;48.692;8.186;2022-07-09T07:44:09;6.30;;;3.10;;
59530;SDS011;45349;48.692;8.186;2022-07-09T07:46:37;7.40;;;3.13;;
59530;SDS011;45349;48.692;8.186;2022-07-09T07:49:05;6.23;;;3.13;;
59530;SDS011;45349;48.692;8.186;2022-07-09T07:51:32;9.20;;;3.17;;
59530;SDS011;45349;48.692;8.186;2022-07-09T07:54:00;4.83;;;3.17;;
59530;SDS011;45349;48.692;8.186;2022-07-09T07:56:28;8.97;;;3.27;;
59530;SDS011;45349;48.692;8.186;2022-07-09T07:58:56;7.70;;;3.50;;
59530;SDS011;45349;48.692;8.186;2022-07-09T08:01:23;9.30;;;3.50;;
59530;SDS011;45349;48.692;8.186;2022-07-09T08:03:49;9.30;;;3.60;;
59530;SDS011;45349;48.692;8.186;2022-07-09T08:06:18;6.33;;;3.40;;
59530;SDS011;45349;48.692;8.186;2022-07-09T08:08:47;5.90;;;3.83;;
59530;SDS011;45349;48.692;8.186;2022-07-09T08:11:15;8.13;;;3.10;;
59530;SDS011;45349;48.692;8.186;2022-07-09T08:13:42;10.17;;;3.57;;
59530;SDS011;45349;48.692;8.186;2022-07-09T08:16:09;7.03;;;3.37;;
59530;SDS011;45349;48.692;8.186;2022-07-09T08:18:36;7.17;;;3.00;;
59530;SDS011;45349;48.692;8.186;2022-07-09T08:21:03;5.33;;;3.33;;
59530;SDS011;45349;48.692;8.186;2022-07-09T08:23:32;9.03;;;3.47;;
59530;SDS011;45349;48.692;8.186;2022-07-09T08:26:17;4.80;;;2.73;;
59530;SDS011;45349;48.692;8.186;2022-07-09T08:28:45;8.20;;;3.17;;
59530;SDS011;45349;48.692;8.186;2022-07-09T08:31:13;8.57;;;2.87;;
59530;SDS011;45349;48.692;8.186;2022-07-09T08:33:43;7.27;;;2.73;;
59530;SDS011;45349;48.692;8.186;2022-07-09T08:36:11;5.70;;;2.57;;
59530;SDS011;45349;48.692;8.186;2022-07-09T08:38:39;8.27;;;2.60;;
59530;SDS011;45349;48.692;8.186;2022-07-09T08:41:06;5.53;;;3.17;;
59530;SDS011;45349;48.692;8.186;2022-07-09T08:43:34;7.10;;;2.77;;
59530;SDS011;45349;48.692;8.186;2022-07-09T08:46:03;6.73;;;2.73;;
59530;SDS011;45349;48.692;8.186;2022-07-09T08:48:32;10.33;;;3.10;;
59530;SDS011;45349;48.692;8.186;2022-07-09T08:51:00;10.93;;;3.23;;
59530;SDS011;45349;48.692;8.186;2022-07-09T08:53:47;5.40;;;2.33;;
59530;SDS011;45349;48.692;8.186;2022-07-09T08:56:14;5.33;;;2.60;;
59530;SDS011;45349;48.692;8.186;2022-07-09T08:58:41;5.87;;;2.70;;
59530;SDS011;45349;48.692;8.186;2022-07-09T09:01:09;4.23;;;2.70;;
59530;SDS011;45349;48.692;8.186;2022-07-09T09:03:40;4.70;;;2.50;;
59530;SDS011;45349;48.692;8.186;2022-07-09T09:06:09;8.10;;;2.80;;
59530;SDS011;45349;48.692;8.186;2022-07-09T09:08:37;7.37;;;2.77;;
59530;SDS011;45349;48.692;8.186;2022-07-09T09:11:26;7.63;;;2.33;;
59530;SDS011;45349;48.692;8.186;2022-07-09T09:13:53;3.43;;;2.30;;
59530;SDS011;45349;48.692;8.186;2022-07-09T09:16:20;4.93;;;2.53;;
59530;SDS011;45349;48.692;8.186;2022-07-09T09:18:49;3.20;;;2.43;;
59530;SDS011;45349;48.692;8.186;2022-07-09T09:21:19;6.93;;;2.57;;
59530;SDS011;45349;48.692;8.186;2022-07-09T09:23:48;3.13;;;2.10;;
59530;SDS011;45349;48.692;8.186;2022-07-09T09:26:17;4.77;;;2.37;;
59530;SDS011;45349;48.692;8.186;2022-07-09T09:28:48;3.77;;;2.53;;
59530;SDS011;45349;48.692;8.186;2022-07-09T09:31:20;4.90;;;2.30;;
59530;SDS011;45349;48.692;8.186;2022-07-09T09:33:50;4.37;;;2.20;;
59530;SDS011;45349;48.692;8.186;2022-07-09T09:36:28;7.37;;;2.13;;
59530;SDS011;45349;48.692;8.186;2022-07-09T09:41:41;5.00;;;2.10;;
59530;SDS011;45349;48.692;8.186;2022-07-09T09:44:10;4.93;;;1.90;;
59530;SDS011;45349;48.692;8.186;2022-07-09T09:46:40;5.50;;;2.10;;
59530;SDS011;45349;48.692;8.186;2022-07-09T09:49:09;3.10;;;2.00;;
59530;SDS011;45349;48.692;8.186;2022-07-09T09:51:38;5.30;;;1.83;;
59530;SDS011;45349;48.692;8.186;2022-07-09T09:54:13;3.30;;;2.20;;
59530;SDS011;45349;48.692;8.186;2022-07-09T09:56:41;5.13;;;1.90;;
59530;SDS011;45349;48.692;8.186;2022-07-09T09:59:27;4.33;;;1.70;;
59530;SDS011;45349;48.692;8.186;2022-07-09T10:01:55;6.40;;;1.80;;
59530;SDS011;45349;48.692;8.186;2022-07-09T10:04:22;2.77;;;1.97;;
59530;SDS011;45349;48.692;8.186;2022-07-09T10:06:50;2.30;;;1.50;;
59530;SDS011;45349;48.692;8.186;2022-07-09T10:09:17;6.30;;;1.70;;
59530;SDS011;45349;48.692;8.186;2022-07-09T10:11:45;3.80;;;1.80;;
59530;SDS011;45349;48.692;8.186;2022-07-09T10:14:14;6.47;;;1.77;;
59530;SDS011;45349;48.692;8.186;2022-07-09T10:16:44;3.00;;;1.50;;
59530;SDS011;45349;48.692;8.186;2022-07-09T10:19:23;2.60;;;1.20;;
59530;SDS011;45349;48.692;8.186;2022-07-09T10:21:51;5.10;;;1.53;;
59530;SDS011;45349;48.692;8.186;2022-07-09T10:24:23;3.87;;;1.50;;
59530;SDS011;45349;48.692;8.186;2022-07-09T10:26:51;2.63;;;1.20;;
59530;SDS011;45349;48.692;8.186;2022-07-09T10:29:19;2.50;;;1.17;;
59530;SDS011;45349;48.692;8.186;2022-07-09T10:31:51;4.47;;;1.37;;
59530;SDS011;45349;48.692;8.186;2022-07-09T10:34:42;4.83;;;1.40;;
59530;SDS011;45349;48.692;8.186;2022-07-09T10:37:13;2.23;;;1.20;;
59530;SDS011;45349;48.692;8.186;2022-07-09T10:39:40;5.80;;;1.20;;
59530;SDS011;45349;48.692;8.186;2022-07-09T10:42:19;1.67;;;1.00;;
59530;SDS011;45349;48.692;8.186;2022-07-09T10:44:48;2.40;;;1.10;;
59530;SDS011;45349;48.692;8.186;2022-07-09T10:47:17;1.70;;;0.70;;
59530;SDS011;45349;48.692;8.186;2022-07-09T10:49:44;4.33;;;1.17;;
59530;SDS011;45349;48.692;8.186;2022-07-09T10:52:29;1.43;;;0.90;;
59530;SDS011;45349;48.692;8.186;2022-07-09T10:54:56;1.70;;;0.90;;
59530;SDS011;45349;48.692;8.186;2022-07-09T10:57:23;3.40;;;1.10;;
59530;SDS011;45349;48.692;8.186;2022-07-09T10:59:51;3.33;;;1.10;;
59530;SDS011;45349;48.692;8.186;2022-07-09T11:02:20;2.90;;;0.80;;
59530;SDS011;45349;48.692;8.186;2022-07-09T11:04:48;2.77;;;0.80;;
59530;SDS011;45349;48.692;8.186;2022-07-09T11:07:18;1.93;;;0.70;;
59530;SDS011;45349;48.692;8.186;2022-07-09T11:09:46;2.10;;;0.80;;
59530;SDS011;45349;48.692;8.186;2022-07-09T11:12:14;2.17;;;1.00;;
59530;SDS011;45349;48.692;8.186;2022-07-09T11:14:43;5.43;;;1.10;;
59530;SDS011;45349;48.692;8.186;2022-07-09T11:17:13;1.87;;;0.90;;
59530;SDS011;45349;48.692;8.186;2022-07-09T11:19:43;2.37;;;1.00;;
59530;SDS011;45349;48.692;8.186;2022-07-09T11:22:10;1.73;;;0.87;;
59530;SDS011;45349;48.692;8.186;2022-07-09T11:24:38;2.30;;;0.93;;
59530;SDS011;45349;48.692;8.186;2022-07-09T11:27:06;2.60;;;1.00;;
59530;SDS011;45349;48.692;8.186;2022-07-09T11:29:35;3.80;;;1.10;;
59530;SDS011;45349;48.692;8.186;2022-07-09T11:32:03;2.30;;;0.70;;
59530;SDS011;45349;48.692;8.186;2022-07-09T11:34:30;1.63;;;0.80;;
59530;SDS011;45349;48.692;8.186;2022-07-09T11:37:02;4.23;;;1.20;;
59530;SDS011;45349;48.692;8.186;2022-07-09T11:39:35;2.50;;;0.87;;
59530;SDS011;45349;48.692;8.186;2022-07-09T11:42:03;1.80;;;0.70;;
59530;SDS011;45349;48.692;8.186;2022-07-09T11:44:31;2.37;;;0.80;;
59530;SDS011;45349;48.692;8.186;2022-07-09T11:47:00;1.30;;;0.90;;
59530;SDS011;45349;48.692;8.186;2022-07-09T11:49:32;2.40;;;0.70;;
59530;SDS011;45349;48.692;8.186;2022-07-09T11:52:00;1.30;;;0.60;;
59530;SDS011;45349;48.692;8.186;2022-07-09T11:54:29;3.00;;;0.90;;
59530;SDS011;45349;48.692;8.186;2022-07-09T11:56:56;2.00;;;0.67;;
59530;SDS011;45349;48.692;8.186;2022-07-09T11:59:26;1.97;;;0.90;;
59530;SDS011;45349;48.692;8.186;2022-07-09T12:01:57;4.00;;;0.70;;
59530;SDS011;45349;48.692;8.186;2022-07-09T12:04:27;4.23;;;0.83;;
59530;SDS011;45349;48.692;8.186;2022-07-09T12:06:55;2.78;;;0.80;;
59530;SDS011;45349;48.692;8.186;2022-07-09T12:09:30;0.90;;;0.60;;
59530;SDS011;45349;48.692;8.186;2022-07-09T12:11:58;3.20;;;0.60;;
59530;SDS011;45349;48.692;8.186;2022-07-09T12:14:26;1.17;;;0.60;;
59530;SDS011;45349;48.692;8.186;2022-07-09T12:16:53;0.60;;;0.50;;
59530;SDS011;45349;48.692;8.186;2022-07-09T12:19:20;3.10;;;0.67;;
59530;SDS011;45349;48.692;8.186;2022-07-09T12:21:47;1.30;;;0.60;;
59530;SDS011;45349;48.692;8.186;2022-07-09T12:24:14;0.63;;;0.50;;
59530;SDS011;45349;48.692;8.186;2022-07-09T12:26:43;4.27;;;0.80;;
59530;SDS011;45349;48.692;8.186;2022-07-09T12:29:28;1.23;;;0.80;;
59530;SDS011;45349;48.692;8.186;2022-07-09T12:31:55;1.17;;;0.70;;
59530;SDS011;45349;48.692;8.186;2022-07-09T12:34:22;1.70;;;0.80;;
59530;SDS011;45349;48.692;8.186;2022-07-09T12:36:49;1.90;;;0.73;;
59530;SDS011;45349;48.692;8.186;2022-07-09T12:39:16;2.90;;;0.77;;
59530;SDS011;45349;48.692;8.186;2022-07-09T12:41:44;1.37;;;0.73;;
59530;SDS011;45349;48.692;8.186;2022-07-09T12:44:11;1.63;;;0.80;;
59530;SDS011;45349;48.692;8.186;2022-07-09T12:46:38;1.20;;;0.90;;
59530;SDS011;45349;48.692;8.186;2022-07-09T12:49:05;1.80;;;0.70;;
59530;SDS011;45349;48.692;8.186;2022-07-09T12:51:32;1.52;;;0.70;;
59530;SDS011;45349;48.692;8.186;2022-07-09T12:54:00;2.30;;;0.60;;
59530;SDS011;45349;48.692;8.186;2022-07-09T12:56:27;1.53;;;0.90;;
59530;SDS011;45349;48.692;8.186;2022-07-09T12:58:55;2.43;;;0.90;;
59530;SDS011;45349;48.692;8.186;2022-07-09T13:01:23;1.70;;;1.00;;
59530;SDS011;45349;48.692;8.186;2022-07-09T13:03:49;2.47;;;1.00;;
59530;SDS011;45349;48.692;8.186;2022-07-09T13:06:18;1.92;;;0.95;;
59530;SDS011;45349;48.692;8.186;2022-07-09T13:09:01;1.80;;;0.90;;
59530;SDS011;45349;48.692;8.186;2022-07-09T13:11:29;4.32;;;1.00;;
59530;SDS011;45349;48.692;8.186;2022-07-09T13:13:57;2.60;;;1.00;;
59530;SDS011;45349;48.692;8.186;2022-07-09T13:16:25;2.03;;;1.00;;
59530;SDS011;45349;48.692;8.186;2022-07-09T13:18:53;4.60;;;1.10;;
59530;SDS011;45349;48.692;8.186;2022-07-09T13:21:21;2.33;;;0.88;;
59530;SDS011;45349;48.692;8.186;2022-07-09T13:23:49;1.35;;;0.93;;
59530;SDS011;45349;48.692;8.186;2022-07-09T13:26:16;3.53;;;1.08;;
59530;SDS011;45349;48.692;8.186;2022-07-09T13:28:43;1.75;;;1.20;;
59530;SDS011;45349;48.692;8.186;2022-07-09T13:31:11;1.52;;;0.90;;
59530;SDS011;45349;48.692;8.186;2022-07-09T13:33:38;1.73;;;1.00;;
59530;SDS011;45349;48.692;8.186;2022-07-09T13:36:05;2.15;;;0.80;;
59530;SDS011;45349;48.692;8.186;2022-07-09T13:38:32;1.60;;;0.90;;
59530;SDS011;45349;48.692;8.186;2022-07-09T13:40:59;1.58;;;0.90;;
59530;SDS011;45349;48.692;8.186;2022-07-09T13:43:27;3.30;;;1.23;;
59530;SDS011;45349;48.692;8.186;2022-07-09T13:45:54;2.53;;;1.10;;
59530;SDS011;45349;48.692;8.186;2022-07-09T13:48:23;3.30;;;1.00;;
59530;SDS011;45349;48.692;8.186;2022-07-09T13:50:50;2.42;;;1.10;;
59530;SDS011;45349;48.692;8.186;2022-07-09T13:53:17;1.92;;;1.20;;
59530;SDS011;45349;48.692;8.186;2022-07-09T13:55:45;1.70;;;0.80;;
59530;SDS011;45349;48.692;8.186;2022-07-09T13:58:11;1.88;;;1.00;;
59530;SDS011;45349;48.692;8.186;2022-07-09T14:00:39;2.10;;;1.15;;
59530;SDS011;45349;48.692;8.186;2022-07-09T14:03:05;2.65;;;0.95;;
59530;SDS011;45349;48.692;8.186;2022-07-09T14:05:34;2.50;;;1.10;;
59530;SDS011;45349;48.692;8.186;2022-07-09T14:08:02;2.25;;;1.00;;
59530;SDS011;45349;48.692;8.186;2022-07-09T14:10:28;2.58;;;1.15;;
59530;SDS011;45349;48.692;8.186;2022-07-09T14:12:56;2.55;;;1.10;;
59530;SDS011;45349;48.692;8.186;2022-07-09T14:15:23;2.90;;;1.13;;
59530;SDS011;45349;48.692;8.186;2022-07-09T14:17:51;2.05;;;1.33;;
59530;SDS011;45349;48.692;8.186;2022-07-09T14:20:18;1.88;;;0.88;;
59530;SDS011;45349;48.692;8.186;2022-07-09T14:22:47;1.48;;;0.85;;
59530;SDS011;45349;48.692;8.186;2022-07-09T14:25:14;1.45;;;1.10;;
59530;SDS011;45349;48.692;8.186;2022-07-09T14:27:41;3.00;;;1.42;;
59530;SDS011;45349;48.692;8.186;2022-07-09T14:30:08;3.35;;;0.90;;
59530;SDS011;45349;48.692;8.186;2022-07-09T14:32:35;2.50;;;0.88;;
59530;SDS011;45349;48.692;8.186;2022-07-09T14:35:02;1.10;;;0.73;;
59530;SDS011;45349;48.692;8.186;2022-07-09T14:37:30;1.38;;;0.80;;
59530;SDS011;45349;48.692;8.186;2022-07-09T14:39:58;3.58;;;1.10;;
59530;SDS011;45349;48.692;8.186;2022-07-09T14:42:25;2.85;;;1.20;;
59530;SDS011;45349;48.692;8.186;2022-07-09T14:44:52;4.30;;;1.05;;
59530;SDS011;45349;48.692;8.186;2022-07-09T14:47:19;2.00;;;1.15;;
59530;SDS011;45349;48.692;8.186;2022-07-09T14:49:47;2.30;;;1.00;;
59530;SDS011;45349;48.692;8.186;2022-07-09T14:52:13;1.77;;;1.00;;
59530;SDS011;45349;48.692;8.186;2022-07-09T14:54:41;1.15;;;0.88;;
59530;SDS011;45349;48.692;8.186;2022-07-09T14:57:09;1.55;;;0.90;;